sensor_id;sensor_type;location;lat;lon;timestamp;temperature;humidity
27645;DHT22;15054;57.152;-2.118;2022-07-23T00:00:20;12.60;99.90
27645;DHT22;15054;57.152;-2.118;2022-07-23T00:02:48;12.50;99.90
27645;DHT22;15054;57.152;-2.118;2022-07-23T00:05:15;12.40;99.90
27645;DHT22;15054;57.152;-2.118;2022-07-23T00:07:42;12.30;99.90
27645;DHT22;15054;57.152;-2.118;2022-07-23T00:10:09;12.30;99.90
27645;DHT22;15054;57.152;-2.118;2022-07-23T00:12:37;12.30;99.90
27645;DHT22;15054;57.152;-2.118;2022-07-23T00:15:18;12.20;99.90
27645;DHT22;15054;57.152;-2.118;2022-07-23T00:17:45;12.20;99.90
27645;DHT22;15054;57.152;-2.118;2022-07-23T00:20:13;12.10;99.90
27645;DHT22;15054;57.152;-2.118;2022-07-23T00:22:50;12.10;99.90
27645;DHT22;15054;57.152;-2.118;2022-07-23T00:25:19;12.10;99.90
27645;DHT22;15054;57.152;-2.118;2022-07-23T00:28:00;12.10;99.90
27645;DHT22;15054;57.152;-2.118;2022-07-23T00:30:29;12.10;99.90
27645;DHT22;15054;57.152;-2.118;2022-07-23T00:32:59;12.10;99.90
27645;DHT22;15054;57.152;-2.118;2022-07-23T00:35:29;12.10;99.90
27645;DHT22;15054;57.152;-2.118;2022-07-23T00:37:58;12.10;99.90
27645;DHT22;15054;57.152;-2.118;2022-07-23T00:40:29;12.20;99.90
27645;DHT22;15054;57.152;-2.118;2022-07-23T00:42:56;12.20;99.90
27645;DHT22;15054;57.152;-2.118;2022-07-23T00:45:24;12.30;99.90
27645;DHT22;15054;57.152;-2.118;2022-07-23T00:47:51;12.30;99.90
27645;DHT22;15054;57.152;-2.118;2022-07-23T00:50:18;12.30;99.90
27645;DHT22;15054;57.152;-2.118;2022-07-23T00:52:46;12.40;99.90
27645;DHT22;15054;57.152;-2.118;2022-07-23T00:55:13;12.40;99.90
27645;DHT22;15054;57.152;-2.118;2022-07-23T00:57:41;12.40;99.90
27645;DHT22;15054;57.152;-2.118;2022-07-23T01:00:12;12.50;99.90
27645;DHT22;15054;57.152;-2.118;2022-07-23T01:02:40;12.50;99.90
27645;DHT22;15054;57.152;-2.118;2022-07-23T01:05:08;12.50;99.90
27645;DHT22;15054;57.152;-2.118;2022-07-23T01:07:35;12.50;99.90
27645;DHT22;15054;57.152;-2.118;2022-07-23T01:10:03;12.50;99.90
27645;DHT22;15054;57.152;-2.118;2022-07-23T01:12:32;12.60;99.90
27645;DHT22;15054;57.152;-2.118;2022-07-23T01:15:00;12.60;99.90
27645;DHT22;15054;57.152;-2.118;2022-07-23T01:17:28;12.60;99.90
27645;DHT22;15054;57.152;-2.118;2022-07-23T01:19:56;12.60;99.90
27645;DHT22;15054;57.152;-2.118;2022-07-23T01:22:28;12.60;99.90
27645;DHT22;15054;57.152;-2.118;2022-07-23T01:24:56;12.60;99.90
27645;DHT22;15054;57.152;-2.118;2022-07-23T01:27:25;12.60;99.90
27645;DHT22;15054;57.152;-2.118;2022-07-23T01:29:57;12.70;99.90
27645;DHT22;15054;57.152;-2.118;2022-07-23T01:32:26;12.70;99.90
27645;DHT22;15054;57.152;-2.118;2022-07-23T01:34:54;12.70;99.90
27645;DHT22;15054;57.152;-2.118;2022-07-23T01:37:21;12.70;99.90
27645;DHT22;15054;57.152;-2.118;2022-07-23T01:39:49;12.70;99.90
27645;DHT22;15054;57.152;-2.118;2022-07-23T01:42:16;12.70;99.90
27645;DHT22;15054;57.152;-2.118;2022-07-23T01:44:44;12.70;99.90
27645;DHT22;15054;57.152;-2.118;2022-07-23T01:47:18;12.70;99.90
27645;DHT22;15054;57.152;-2.118;2022-07-23T01:49:47;12.80;99.90
27645;DHT22;15054;57.152;-2.118;2022-07-23T01:52:27;12.80;99.90
27645;DHT22;15054;57.152;-2.118;2022-07-23T01:54:54;12.80;99.90
27645;DHT22;15054;57.152;-2.118;2022-07-23T01:57:21;12.80;99.90
27645;DHT22;15054;57.152;-2.118;2022-07-23T01:59:49;12.80;99.90
27645;DHT22;15054;57.152;-2.118;2022-07-23T02:02:19;12.80;99.90
27645;DHT22;15054;57.152;-2.118;2022-07-23T02:04:47;12.80;99.90
27645;DHT22;15054;57.152;-2.118;2022-07-23T02:07:16;12.80;99.90
27645;DHT22;15054;57.152;-2.118;2022-07-23T02:09:43;12.80;99.90
27645;DHT22;15054;57.152;-2.118;2022-07-23T02:12:12;12.80;99.90
27645;DHT22;15054;57.152;-2.118;2022-07-23T02:14:39;12.80;99.90
27645;DHT22;15054;57.152;-2.118;2022-07-23T02:17:06;12.80;99.90
27645;DHT22;15054;57.152;-2.118;2022-07-23T02:19:34;12.80;99.90
27645;DHT22;15054;57.152;-2.118;2022-07-23T02:22:01;12.80;99.90
27645;DHT22;15054;57.152;-2.118;2022-07-23T02:24:29;12.80;99.90
27645;DHT22;15054;57.152;-2.118;2022-07-23T02:26:56;12.80;99.90
27645;DHT22;15054;57.152;-2.118;2022-07-23T02:29:23;12.80;99.90
27645;DHT22;15054;57.152;-2.118;2022-07-23T02:31:54;12.90;99.90
27645;DHT22;15054;57.152;-2.118;2022-07-23T02:34:22;12.90;99.90
27645;DHT22;15054;57.152;-2.118;2022-07-23T02:36:49;12.90;99.90
27645;DHT22;15054;57.152;-2.118;2022-07-23T02:39:16;12.90;99.90
27645;DHT22;15054;57.152;-2.118;2022-07-23T02:41:44;12.90;99.90
27645;DHT22;15054;57.152;-2.118;2022-07-23T02:44:11;12.90;99.90
27645;DHT22;15054;57.152;-2.118;2022-07-23T02:46:41;13.00;99.90
27645;DHT22;15054;57.152;-2.118;2022-07-23T02:49:08;13.00;99.90
27645;DHT22;15054;57.152;-2.118;2022-07-23T02:51:35;13.00;99.90
27645;DHT22;15054;57.152;-2.118;2022-07-23T02:54:05;13.00;99.90
27645;DHT22;15054;57.152;-2.118;2022-07-23T02:56:33;13.00;99.90
27645;DHT22;15054;57.152;-2.118;2022-07-23T02:59:00;13.00;99.90
27645;DHT22;15054;57.152;-2.118;2022-07-23T03:01:27;13.00;99.90
27645;DHT22;15054;57.152;-2.118;2022-07-23T03:03:55;13.00;99.90
27645;DHT22;15054;57.152;-2.118;2022-07-23T03:06:22;13.10;99.90
27645;DHT22;15054;57.152;-2.118;2022-07-23T03:08:50;13.00;99.90
27645;DHT22;15054;57.152;-2.118;2022-07-23T03:11:17;13.10;99.90
27645;DHT22;15054;57.152;-2.118;2022-07-23T03:13:45;13.10;99.90
27645;DHT22;15054;57.152;-2.118;2022-07-23T03:16:12;13.10;99.90
27645;DHT22;15054;57.152;-2.118;2022-07-23T03:18:39;13.10;99.90
27645;DHT22;15054;57.152;-2.118;2022-07-23T03:21:09;13.20;99.90
27645;DHT22;15054;57.152;-2.118;2022-07-23T03:23:37;13.20;99.90
27645;DHT22;15054;57.152;-2.118;2022-07-23T03:26:04;13.20;99.90
27645;DHT22;15054;57.152;-2.118;2022-07-23T03:28:33;13.20;99.90
27645;DHT22;15054;57.152;-2.118;2022-07-23T03:31:00;13.20;99.90
27645;DHT22;15054;57.152;-2.118;2022-07-23T03:33:27;13.30;99.90
27645;DHT22;15054;57.152;-2.118;2022-07-23T03:35:54;13.20;99.90
27645;DHT22;15054;57.152;-2.118;2022-07-23T03:38:27;13.20;99.90
27645;DHT22;15054;57.152;-2.118;2022-07-23T03:40:54;13.20;99.90
27645;DHT22;15054;57.152;-2.118;2022-07-23T03:43:21;13.30;99.90
27645;DHT22;15054;57.152;-2.118;2022-07-23T03:45:51;13.30;99.90
27645;DHT22;15054;57.152;-2.118;2022-07-23T03:48:18;13.30;99.90
27645;DHT22;15054;57.152;-2.118;2022-07-23T03:50:46;13.30;99.90
27645;DHT22;15054;57.152;-2.118;2022-07-23T03:53:13;13.30;99.90
27645;DHT22;15054;57.152;-2.118;2022-07-23T03:55:40;13.30;99.90
27645;DHT22;15054;57.152;-2.118;2022-07-23T03:58:07;13.30;99.90
27645;DHT22;15054;57.152;-2.118;2022-07-23T04:00:34;13.30;99.90
27645;DHT22;15054;57.152;-2.118;2022-07-23T04:03:02;13.30;99.90
27645;DHT22;15054;57.152;-2.118;2022-07-23T04:05:29;13.30;99.90
27645;DHT22;15054;57.152;-2.118;2022-07-23T04:08:05;13.30;99.90
27645;DHT22;15054;57.152;-2.118;2022-07-23T04:10:36;13.30;99.90
27645;DHT22;15054;57.152;-2.118;2022-07-23T04:13:05;13.30;99.90
27645;DHT22;15054;57.152;-2.118;2022-07-23T04:15:32;13.30;99.90
27645;DHT22;15054;57.152;-2.118;2022-07-23T04:18:00;13.30;99.90
27645;DHT22;15054;57.152;-2.118;2022-07-23T04:20:37;13.30;99.90
27645;DHT22;15054;57.152;-2.118;2022-07-23T04:23:08;13.40;99.90
27645;DHT22;15054;57.152;-2.118;2022-07-23T04:25:39;13.40;99.90
27645;DHT22;15054;57.152;-2.118;2022-07-23T04:28:06;13.40;99.90
27645;DHT22;15054;57.152;-2.118;2022-07-23T04:30:33;13.40;99.90
27645;DHT22;15054;57.152;-2.118;2022-07-23T04:33:01;13.40;99.90
27645;DHT22;15054;57.152;-2.118;2022-07-23T04:35:28;13.40;99.90
27645;DHT22;15054;57.152;-2.118;2022-07-23T04:38:04;13.40;99.90
27645;DHT22;15054;57.152;-2.118;2022-07-23T04:40:32;13.50;99.90
27645;DHT22;15054;57.152;-2.118;2022-07-23T04:42:59;13.50;99.90
27645;DHT22;15054;57.152;-2.118;2022-07-23T04:45:27;13.50;99.90
27645;DHT22;15054;57.152;-2.118;2022-07-23T04:47:56;13.40;99.90
27645;DHT22;15054;57.152;-2.118;2022-07-23T04:50:24;13.50;99.90
27645;DHT22;15054;57.152;-2.118;2022-07-23T04:52:56;13.50;99.90
27645;DHT22;15054;57.152;-2.118;2022-07-23T04:55:24;13.50;99.90
27645;DHT22;15054;57.152;-2.118;2022-07-23T04:57:51;13.50;99.90
27645;DHT22;15054;57.152;-2.118;2022-07-23T05:00:18;13.60;99.90
27645;DHT22;15054;57.152;-2.118;2022-07-23T05:02:46;13.60;99.90
27645;DHT22;15054;57.152;-2.118;2022-07-23T05:05:13;13.60;99.90
27645;DHT22;15054;57.152;-2.118;2022-07-23T05:07:42;13.70;99.90
27645;DHT22;15054;57.152;-2.118;2022-07-23T05:10:09;13.70;99.90
27645;DHT22;15054;57.152;-2.118;2022-07-23T05:12:36;13.70;99.90
27645;DHT22;15054;57.152;-2.118;2022-07-23T05:15:04;13.80;99.90
27645;DHT22;15054;57.152;-2.118;2022-07-23T05:17:31;13.80;99.90
27645;DHT22;15054;57.152;-2.118;2022-07-23T05:20:01;13.80;99.90
27645;DHT22;15054;57.152;-2.118;2022-07-23T05:22:28;13.80;99.90
27645;DHT22;15054;57.152;-2.118;2022-07-23T05:24:56;13.80;99.90
27645;DHT22;15054;57.152;-2.118;2022-07-23T05:27:23;13.90;99.90
27645;DHT22;15054;57.152;-2.118;2022-07-23T05:29:51;13.90;99.90
27645;DHT22;15054;57.152;-2.118;2022-07-23T05:32:18;13.90;99.90
27645;DHT22;15054;57.152;-2.118;2022-07-23T05:34:53;13.90;99.90
27645;DHT22;15054;57.152;-2.118;2022-07-23T05:37:20;13.90;99.90
27645;DHT22;15054;57.152;-2.118;2022-07-23T05:39:48;13.90;99.90
27645;DHT22;15054;57.152;-2.118;2022-07-23T05:42:18;14.00;99.90
27645;DHT22;15054;57.152;-2.118;2022-07-23T05:44:45;14.00;99.90
27645;DHT22;15054;57.152;-2.118;2022-07-23T05:47:12;14.10;99.90
27645;DHT22;15054;57.152;-2.118;2022-07-23T05:49:40;14.00;99.90
27645;DHT22;15054;57.152;-2.118;2022-07-23T05:52:07;14.00;99.90
27645;DHT22;15054;57.152;-2.118;2022-07-23T05:55:08;14.10;99.90
27645;DHT22;15054;57.152;-2.118;2022-07-23T05:57:35;14.10;99.90
27645;DHT22;15054;57.152;-2.118;2022-07-23T06:00:04;14.10;99.90
27645;DHT22;15054;57.152;-2.118;2022-07-23T06:02:39;14.20;99.90
27645;DHT22;15054;57.152;-2.118;2022-07-23T06:05:09;14.20;99.90
27645;DHT22;15054;57.152;-2.118;2022-07-23T06:07:38;14.30;99.90
27645;DHT22;15054;57.152;-2.118;2022-07-23T06:10:06;14.30;99.90
27645;DHT22;15054;57.152;-2.118;2022-07-23T06:12:33;14.20;99.90
27645;DHT22;15054;57.152;-2.118;2022-07-23T06:15:01;14.20;99.90
27645;DHT22;15054;57.152;-2.118;2022-07-23T06:17:28;14.30;99.90
27645;DHT22;15054;57.152;-2.118;2022-07-23T06:19:56;14.30;99.90
27645;DHT22;15054;57.152;-2.118;2022-07-23T06:22:23;14.30;99.90
27645;DHT22;15054;57.152;-2.118;2022-07-23T06:24:51;14.30;99.90
27645;DHT22;15054;57.152;-2.118;2022-07-23T06:27:20;14.30;99.90
27645;DHT22;15054;57.152;-2.118;2022-07-23T06:29:52;14.30;99.90
27645;DHT22;15054;57.152;-2.118;2022-07-23T06:32:20;14.30;99.90
27645;DHT22;15054;57.152;-2.118;2022-07-23T06:34:47;14.40;99.90
27645;DHT22;15054;57.152;-2.118;2022-07-23T06:37:15;14.30;99.90
27645;DHT22;15054;57.152;-2.118;2022-07-23T06:39:45;14.40;99.90
27645;DHT22;15054;57.152;-2.118;2022-07-23T06:42:13;14.40;99.90
27645;DHT22;15054;57.152;-2.118;2022-07-23T06:44:44;14.40;99.90
27645;DHT22;15054;57.152;-2.118;2022-07-23T06:47:15;14.40;99.90
27645;DHT22;15054;57.152;-2.118;2022-07-23T06:49:42;14.50;99.90
27645;DHT22;15054;57.152;-2.118;2022-07-23T06:52:09;14.40;99.90
27645;DHT22;15054;57.152;-2.118;2022-07-23T06:54:36;14.40;99.90
27645;DHT22;15054;57.152;-2.118;2022-07-23T06:57:04;14.50;99.90
27645;DHT22;15054;57.152;-2.118;2022-07-23T06:59:32;14.50;99.90
27645;DHT22;15054;57.152;-2.118;2022-07-23T07:01:59;14.50;99.90
27645;DHT22;15054;57.152;-2.118;2022-07-23T07:04:27;14.50;99.90
27645;DHT22;15054;57.152;-2.118;2022-07-23T07:06:54;14.50;99.90
27645;DHT22;15054;57.152;-2.118;2022-07-23T07:09:21;14.50;99.90
27645;DHT22;15054;57.152;-2.118;2022-07-23T07:11:48;14.40;99.90
27645;DHT22;15054;57.152;-2.118;2022-07-23T07:14:18;14.50;99.90
27645;DHT22;15054;57.152;-2.118;2022-07-23T07:16:45;14.50;99.90
27645;DHT22;15054;57.152;-2.118;2022-07-23T07:19:12;14.40;99.90
27645;DHT22;15054;57.152;-2.118;2022-07-23T07:21:39;14.40;99.90
27645;DHT22;15054;57.152;-2.118;2022-07-23T07:24:07;14.40;99.90
27645;DHT22;15054;57.152;-2.118;2022-07-23T07:26:34;14.40;99.90
27645;DHT22;15054;57.152;-2.118;2022-07-23T07:29:02;14.40;99.90
27645;DHT22;15054;57.152;-2.118;2022-07-23T07:31:30;14.40;99.90
27645;DHT22;15054;57.152;-2.118;2022-07-23T07:33:58;14.50;99.90
27645;DHT22;15054;57.152;-2.118;2022-07-23T07:36:26;14.40;99.90
27645;DHT22;15054;57.152;-2.118;2022-07-23T07:38:53;14.40;99.90
27645;DHT22;15054;57.152;-2.118;2022-07-23T07:41:21;14.40;99.90
27645;DHT22;15054;57.152;-2.118;2022-07-23T07:43:50;14.40;99.90
27645;DHT22;15054;57.152;-2.118;2022-07-23T07:46:18;14.50;99.90
27645;DHT22;15054;57.152;-2.118;2022-07-23T07:48:45;14.50;99.90
27645;DHT22;15054;57.152;-2.118;2022-07-23T07:51:12;14.50;99.90
27645;DHT22;15054;57.152;-2.118;2022-07-23T07:53:39;14.60;99.90
27645;DHT22;15054;57.152;-2.118;2022-07-23T07:56:11;14.60;99.90
27645;DHT22;15054;57.152;-2.118;2022-07-23T07:58:38;14.60;99.90
27645;DHT22;15054;57.152;-2.118;2022-07-23T08:01:06;14.60;99.90
27645;DHT22;15054;57.152;-2.118;2022-07-23T08:03:33;14.60;99.90
27645;DHT22;15054;57.152;-2.118;2022-07-23T08:06:03;14.60;99.90
27645;DHT22;15054;57.152;-2.118;2022-07-23T08:08:30;14.60;99.90
27645;DHT22;15054;57.152;-2.118;2022-07-23T08:10:57;14.60;99.90
27645;DHT22;15054;57.152;-2.118;2022-07-23T08:13:24;14.70;99.90
27645;DHT22;15054;57.152;-2.118;2022-07-23T08:15:51;14.70;99.90
27645;DHT22;15054;57.152;-2.118;2022-07-23T08:18:20;14.80;99.90
27645;DHT22;15054;57.152;-2.118;2022-07-23T08:20:47;14.90;99.90
27645;DHT22;15054;57.152;-2.118;2022-07-23T08:23:14;15.00;99.90
27645;DHT22;15054;57.152;-2.118;2022-07-23T08:25:46;15.00;99.90
27645;DHT22;15054;57.152;-2.118;2022-07-23T08:28:14;15.10;99.90
27645;DHT22;15054;57.152;-2.118;2022-07-23T08:30:44;15.10;99.90
27645;DHT22;15054;57.152;-2.118;2022-07-23T08:33:15;15.20;99.90
27645;DHT22;15054;57.152;-2.118;2022-07-23T08:35:58;15.10;99.90
27645;DHT22;15054;57.152;-2.118;2022-07-23T08:38:25;15.10;99.90
27645;DHT22;15054;57.152;-2.118;2022-07-23T08:40:53;15.10;99.90
27645;DHT22;15054;57.152;-2.118;2022-07-23T08:43:24;15.30;99.90
27645;DHT22;15054;57.152;-2.118;2022-07-23T08:45:54;15.40;99.90
27645;DHT22;15054;57.152;-2.118;2022-07-23T08:48:35;15.40;99.90
27645;DHT22;15054;57.152;-2.118;2022-07-23T08:51:06;15.50;99.90
27645;DHT22;15054;57.152;-2.118;2022-07-23T08:53:34;15.60;99.90
27645;DHT22;15054;57.152;-2.118;2022-07-23T08:56:06;15.70;99.90
27645;DHT22;15054;57.152;-2.118;2022-07-23T08:58:36;15.70;99.90
27645;DHT22;15054;57.152;-2.118;2022-07-23T09:01:03;15.70;99.90
27645;DHT22;15054;57.152;-2.118;2022-07-23T09:03:32;15.50;99.90
27645;DHT22;15054;57.152;-2.118;2022-07-23T09:06:00;15.50;99.90
27645;DHT22;15054;57.152;-2.118;2022-07-23T09:08:41;15.70;99.90
27645;DHT22;15054;57.152;-2.118;2022-07-23T09:11:10;15.60;99.90
27645;DHT22;15054;57.152;-2.118;2022-07-23T09:13:49;15.50;99.90
27645;DHT22;15054;57.152;-2.118;2022-07-23T09:16:29;15.50;99.90
27645;DHT22;15054;57.152;-2.118;2022-07-23T09:19:01;15.40;99.90
27645;DHT22;15054;57.152;-2.118;2022-07-23T09:21:36;15.40;99.90
27645;DHT22;15054;57.152;-2.118;2022-07-23T09:24:07;15.40;99.90
27645;DHT22;15054;57.152;-2.118;2022-07-23T09:26:46;15.40;99.90
27645;DHT22;15054;57.152;-2.118;2022-07-23T09:31:47;15.30;99.90
27645;DHT22;15054;57.152;-2.118;2022-07-23T09:34:20;15.20;99.90
27645;DHT22;15054;57.152;-2.118;2022-07-23T09:36:53;15.10;99.90
27645;DHT22;15054;57.152;-2.118;2022-07-23T09:41:53;15.00;99.90
27645;DHT22;15054;57.152;-2.118;2022-07-23T09:44:21;15.00;99.90
27645;DHT22;15054;57.152;-2.118;2022-07-23T09:46:58;14.90;99.90
27645;DHT22;15054;57.152;-2.118;2022-07-23T09:49:25;14.80;99.90
27645;DHT22;15054;57.152;-2.118;2022-07-23T09:51:55;14.70;99.90
27645;DHT22;15054;57.152;-2.118;2022-07-23T09:54:34;14.80;99.90
27645;DHT22;15054;57.152;-2.118;2022-07-23T09:57:07;14.70;99.90
27645;DHT22;15054;57.152;-2.118;2022-07-23T09:59:38;14.70;99.90
27645;DHT22;15054;57.152;-2.118;2022-07-23T10:02:07;14.90;99.90
27645;DHT22;15054;57.152;-2.118;2022-07-23T10:04:47;15.00;99.90
27645;DHT22;15054;57.152;-2.118;2022-07-23T10:07:22;15.10;99.90
27645;DHT22;15054;57.152;-2.118;2022-07-23T10:10:10;15.20;99.90
27645;DHT22;15054;57.152;-2.118;2022-07-23T10:12:56;15.10;99.90
27645;DHT22;15054;57.152;-2.118;2022-07-23T10:15:24;15.20;99.90
27645;DHT22;15054;57.152;-2.118;2022-07-23T10:17:52;15.00;99.90
27645;DHT22;15054;57.152;-2.118;2022-07-23T10:20:19;14.90;99.90
27645;DHT22;15054;57.152;-2.118;2022-07-23T10:25:54;15.00;99.90
27645;DHT22;15054;57.152;-2.118;2022-07-23T10:31:28;14.80;99.90
27645;DHT22;15054;57.152;-2.118;2022-07-23T10:34:30;14.70;99.90
27645;DHT22;15054;57.152;-2.118;2022-07-23T10:39:37;14.70;99.90
27645;DHT22;15054;57.152;-2.118;2022-07-23T10:42:15;14.70;99.90
27645;DHT22;15054;57.152;-2.118;2022-07-23T10:44:46;14.70;99.90
27645;DHT22;15054;57.152;-2.118;2022-07-23T10:47:33;14.70;99.90
27645;DHT22;15054;57.152;-2.118;2022-07-23T10:50:27;14.70;99.90
27645;DHT22;15054;57.152;-2.118;2022-07-23T10:58:07;15.00;99.90
27645;DHT22;15054;57.152;-2.118;2022-07-23T11:00:36;15.20;99.90
27645;DHT22;15054;57.152;-2.118;2022-07-23T11:05:56;15.30;99.90
27645;DHT22;15054;57.152;-2.118;2022-07-23T11:08:24;15.30;99.90
27645;DHT22;15054;57.152;-2.118;2022-07-23T11:11:07;15.20;99.90
27645;DHT22;15054;57.152;-2.118;2022-07-23T11:13:45;15.30;99.90
27645;DHT22;15054;57.152;-2.118;2022-07-23T11:16:24;15.40;99.90
27645;DHT22;15054;57.152;-2.118;2022-07-23T11:18:57;15.40;99.90
27645;DHT22;15054;57.152;-2.118;2022-07-23T11:24:00;15.20;99.90
27645;DHT22;15054;57.152;-2.118;2022-07-23T11:26:48;15.30;99.90
27645;DHT22;15054;57.152;-2.118;2022-07-23T11:32:00;15.10;99.90
27645;DHT22;15054;57.152;-2.118;2022-07-23T11:36:59;15.00;99.90
27645;DHT22;15054;57.152;-2.118;2022-07-23T11:39:34;15.10;99.90
27645;DHT22;15054;57.152;-2.118;2022-07-23T11:42:03;15.10;99.90
27645;DHT22;15054;57.152;-2.118;2022-07-23T11:44:35;15.00;99.90
27645;DHT22;15054;57.152;-2.118;2022-07-23T11:47:10;15.10;99.90
27645;DHT22;15054;57.152;-2.118;2022-07-23T11:49:57;15.20;99.90
27645;DHT22;15054;57.152;-2.118;2022-07-23T11:52:27;15.50;99.90
27645;DHT22;15054;57.152;-2.118;2022-07-23T11:55:04;15.70;99.90
27645;DHT22;15054;57.152;-2.118;2022-07-23T11:57:34;15.70;99.90
27645;DHT22;15054;57.152;-2.118;2022-07-23T12:00:31;15.90;99.90
27645;DHT22;15054;57.152;-2.118;2022-07-23T12:03:06;16.20;99.90
27645;DHT22;15054;57.152;-2.118;2022-07-23T12:05:37;16.30;99.90
27645;DHT22;15054;57.152;-2.118;2022-07-23T12:08:07;16.50;99.90
27645;DHT22;15054;57.152;-2.118;2022-07-23T12:10:42;16.50;99.90
27645;DHT22;15054;57.152;-2.118;2022-07-23T12:13:11;16.30;99.90
27645;DHT22;15054;57.152;-2.118;2022-07-23T12:15:43;16.40;99.90
27645;DHT22;15054;57.152;-2.118;2022-07-23T12:18:14;16.60;99.90
27645;DHT22;15054;57.152;-2.118;2022-07-23T12:20:52;16.70;99.90
27645;DHT22;15054;57.152;-2.118;2022-07-23T12:23:23;16.80;99.90
27645;DHT22;15054;57.152;-2.118;2022-07-23T12:25:51;16.60;99.90
27645;DHT22;15054;57.152;-2.118;2022-07-23T12:28:29;16.50;99.90
27645;DHT22;15054;57.152;-2.118;2022-07-23T12:31:01;16.30;99.90
27645;DHT22;15054;57.152;-2.118;2022-07-23T12:33:30;16.30;99.90
27645;DHT22;15054;57.152;-2.118;2022-07-23T12:36:03;16.20;99.90
27645;DHT22;15054;57.152;-2.118;2022-07-23T12:38:39;16.00;99.90
27645;DHT22;15054;57.152;-2.118;2022-07-23T12:41:10;15.90;99.90
27645;DHT22;15054;57.152;-2.118;2022-07-23T12:43:40;16.00;99.90
27645;DHT22;15054;57.152;-2.118;2022-07-23T12:46:16;15.90;99.90
27645;DHT22;15054;57.152;-2.118;2022-07-23T12:51:25;15.80;99.90
27645;DHT22;15054;57.152;-2.118;2022-07-23T12:54:07;15.80;99.90
27645;DHT22;15054;57.152;-2.118;2022-07-23T12:56:40;16.00;99.90
27645;DHT22;15054;57.152;-2.118;2022-07-23T12:59:15;15.90;99.90
27645;DHT22;15054;57.152;-2.118;2022-07-23T13:01:55;15.60;99.90
27645;DHT22;15054;57.152;-2.118;2022-07-23T13:04:25;15.40;99.90
27645;DHT22;15054;57.152;-2.118;2022-07-23T13:06:56;15.50;99.90
27645;DHT22;15054;57.152;-2.118;2022-07-23T13:09:33;15.40;99.90
27645;DHT22;15054;57.152;-2.118;2022-07-23T13:12:08;15.30;99.90
27645;DHT22;15054;57.152;-2.118;2022-07-23T13:14:39;15.30;99.90
27645;DHT22;15054;57.152;-2.118;2022-07-23T13:17:07;15.30;99.90
27645;DHT22;15054;57.152;-2.118;2022-07-23T13:19:35;15.40;99.90
27645;DHT22;15054;57.152;-2.118;2022-07-23T13:22:02;15.40;99.90
27645;DHT22;15054;57.152;-2.118;2022-07-23T13:24:35;15.50;99.90
27645;DHT22;15054;57.152;-2.118;2022-07-23T13:27:05;15.50;99.90
27645;DHT22;15054;57.152;-2.118;2022-07-23T13:29:39;15.50;99.90
27645;DHT22;15054;57.152;-2.118;2022-07-23T13:32:08;15.40;99.90
27645;DHT22;15054;57.152;-2.118;2022-07-23T13:34:39;15.40;99.90
27645;DHT22;15054;57.152;-2.118;2022-07-23T13:37:07;15.50;99.90
27645;DHT22;15054;57.152;-2.118;2022-07-23T13:39:37;15.50;99.90
27645;DHT22;15054;57.152;-2.118;2022-07-23T13:42:06;15.40;99.90
27645;DHT22;15054;57.152;-2.118;2022-07-23T13:44:34;15.30;99.90
27645;DHT22;15054;57.152;-2.118;2022-07-23T13:47:02;15.40;99.90
27645;DHT22;15054;57.152;-2.118;2022-07-23T13:49:30;15.40;99.90
27645;DHT22;15054;57.152;-2.118;2022-07-23T13:51:57;15.50;99.90
27645;DHT22;15054;57.152;-2.118;2022-07-23T13:54:25;15.70;99.90
27645;DHT22;15054;57.152;-2.118;2022-07-23T13:56:54;15.80;99.90
27645;DHT22;15054;57.152;-2.118;2022-07-23T13:59:23;15.80;99.90
27645;DHT22;15054;57.152;-2.118;2022-07-23T14:01:53;15.90;99.90
27645;DHT22;15054;57.152;-2.118;2022-07-23T14:04:41;15.80;99.90
27645;DHT22;15054;57.152;-2.118;2022-07-23T14:07:09;15.70;99.90
27645;DHT22;15054;57.152;-2.118;2022-07-23T14:09:36;15.70;99.90
27645;DHT22;15054;57.152;-2.118;2022-07-23T14:12:04;15.60;99.90
27645;DHT22;15054;57.152;-2.118;2022-07-23T14:14:32;15.80;99.90
27645;DHT22;15054;57.152;-2.118;2022-07-23T14:17:03;15.80;99.90
27645;DHT22;15054;57.152;-2.118;2022-07-23T14:19:31;15.80;99.90
27645;DHT22;15054;57.152;-2.118;2022-07-23T14:21:58;15.70;99.90
27645;DHT22;15054;57.152;-2.118;2022-07-23T14:24:26;15.60;99.90
27645;DHT22;15054;57.152;-2.118;2022-07-23T14:27:00;15.60;99.90
27645;DHT22;15054;57.152;-2.118;2022-07-23T14:29:28;15.70;99.90
27645;DHT22;15054;57.152;-2.118;2022-07-23T14:31:57;15.60;99.90
27645;DHT22;15054;57.152;-2.118;2022-07-23T14:34:26;15.60;99.90
27645;DHT22;15054;57.152;-2.118;2022-07-23T14:36:55;15.70;99.90
27645;DHT22;15054;57.152;-2.118;2022-07-23T14:39:22;15.90;99.90
27645;DHT22;15054;57.152;-2.118;2022-07-23T14:41:50;15.90;99.90
27645;DHT22;15054;57.152;-2.118;2022-07-23T14:44:17;16.00;99.90
27645;DHT22;15054;57.152;-2.118;2022-07-23T14:46:45;16.20;99.90
27645;DHT22;15054;57.152;-2.118;2022-07-23T14:49:12;16.10;99.90
27645;DHT22;15054;57.152;-2.118;2022-07-23T14:51:40;16.30;99.90
27645;DHT22;15054;57.152;-2.118;2022-07-23T14:54:09;16.50;99.90
27645;DHT22;15054;57.152;-2.118;2022-07-23T14:56:36;16.50;99.90
27645;DHT22;15054;57.152;-2.118;2022-07-23T14:59:04;16.60;99.90
27645;DHT22;15054;57.152;-2.118;2022-07-23T15:01:33;16.90;99.90
27645;DHT22;15054;57.152;-2.118;2022-07-23T15:04:00;17.20;99.90
27645;DHT22;15054;57.152;-2.118;2022-07-23T15:06:48;17.70;99.90
27645;DHT22;15054;57.152;-2.118;2022-07-23T15:09:15;17.90;99.90
27645;DHT22;15054;57.152;-2.118;2022-07-23T15:11:43;18.00;99.90
27645;DHT22;15054;57.152;-2.118;2022-07-23T15:14:10;17.80;99.90
27645;DHT22;15054;57.152;-2.118;2022-07-23T15:16:43;17.60;99.90
27645;DHT22;15054;57.152;-2.118;2022-07-23T15:19:13;17.10;99.90
27645;DHT22;15054;57.152;-2.118;2022-07-23T15:21:40;16.80;99.90
27645;DHT22;15054;57.152;-2.118;2022-07-23T15:24:14;16.80;99.90
27645;DHT22;15054;57.152;-2.118;2022-07-23T15:26:42;16.60;99.90
27645;DHT22;15054;57.152;-2.118;2022-07-23T15:29:09;16.60;99.90
27645;DHT22;15054;57.152;-2.118;2022-07-23T15:31:36;16.50;99.90
27645;DHT22;15054;57.152;-2.118;2022-07-23T15:34:03;16.40;99.90
27645;DHT22;15054;57.152;-2.118;2022-07-23T15:36:33;16.60;99.90
27645;DHT22;15054;57.152;-2.118;2022-07-23T15:39:02;16.80;99.90
27645;DHT22;15054;57.152;-2.118;2022-07-23T15:41:31;16.90;99.90
27645;DHT22;15054;57.152;-2.118;2022-07-23T15:43:59;16.70;99.90
27645;DHT22;15054;57.152;-2.118;2022-07-23T15:46:46;16.60;99.90
27645;DHT22;15054;57.152;-2.118;2022-07-23T15:49:14;16.60;99.90
27645;DHT22;15054;57.152;-2.118;2022-07-23T15:51:44;16.50;99.90
27645;DHT22;15054;57.152;-2.118;2022-07-23T15:54:13;16.60;99.90
27645;DHT22;15054;57.152;-2.118;2022-07-23T15:56:42;16.60;99.90
27645;DHT22;15054;57.152;-2.118;2022-07-23T15:59:09;16.70;99.90
27645;DHT22;15054;57.152;-2.118;2022-07-23T16:01:37;16.70;99.90
27645;DHT22;15054;57.152;-2.118;2022-07-23T16:04:04;16.70;99.90